Share

Council Grove, KS

9:43 AM CDT on April 23, 2014 (GMT -0500)
Marshall Army Air Field (KFRI) Elev 1063 ft | 39.06 °N, 96.76 °W | Change Station

Current weather conditions updated 9 minutes ago

Overcast
Overcast
57 °F
Feels Like 57 °F
N
12
Wind Variable Wind from ESE
Gusts 20 mph
Sunrise 6:38 AM
Sunset 8:10 PM
Moon Waning Crescent

Today is forecast to be Much Warmer than yesterday. Showers and thunderstorms late tonight.

Pressure 29.89 in
Visibility 10.0 miles
Clouds Overcast 12000 ft
Dew Point 39 °F
Humidity 51%
Rainfall 0.00 in
Snow Depth Not available.
UV 1 out of 16
Pollen 11.10 out of 12
Air Quality Not available.
Flu Activity No Activity
SPECI KFRI 231434Z AUTO 11010G17KT 10SM OVC120 14/04 A2989 RMK AO2 RAB1403E1424DZE1403B1430

More Conditions Fewer Conditions

Pressure 29.89 in
Visibility 10.0 miles
Clouds Overcast 12000 ft
Dew Point 39 °F
Humidity 51%
Rainfall 0.00 in
Snow Depth Not available.
UV 1 out of 16
Pollen 11.10 out of 12
Air Quality Not available.
Flu Activity No Activity
SPECI KFRI 231434Z AUTO 11010G17KT 10SM OVC120 14/04 A2989 RMK AO2 RAB1403E1424DZE1403B1430

More Conditions Fewer Conditions

10-Day Weather Forecast

Almanac

Astronomy

Apr. 23, 2014 Rise Set
Actual Time 6:38 AM CDT 8:10 PM CDT
Civil Twilight 6:10 AM CDT 8:38 PM CDT
Nautical Twilight 5:36 AM CDT 9:12 PM CDT
Astronomical Twilight 5:01 AM CDT 9:48 PM CDT
Moon 3:07 AM CDT 2:24 PM CDT
Length of Visible Light 14h 27m
Length of Day
13h 31m
Tomorrow will be 2m 17s longer.
Waning Crescent, 35% of the Moon is Illuminated
Today
Waning Crescent
Apr 29
New
May 6
First Quarter
May 14
Full
May 21
Last Quarter

Today's Extremes

State Highs State Lows

Community

  • spring flowers
    spring flowers
  • Earth Day Spectrum Ove' Blue
    Earth Day Spectrum Ove' Blue
  • BARN B&W
    BARN B&W
  • April Sunset
    April Sunset
  • Waiting..
    Waiting..

WunderPhotos

Upload Photos

1,704,299 photos uploaded!

Nearby

Snow Depth

Station Depth Elevation
No new snow has been reported.

Coastal Water Temperatures

Place Temperature
No Stations Reporting

Earthquake Activity

City Distance Mag. Time & Date
No recent earthquake activity has been reported nearby.
Minimum magnitude displayed is 2.5.

Nearby Weather Stations

Station Location Temp. Dew Point Humidity Wind Precip. Elev Updated Type
MesoWest DWIGHT , Dwight, KS 52 °F - - North  at  - 0.00 in / hr 1443 ft 7:10 AM CDT MADIS
RAWS TALLGRASS PRAIRIE KS, Strong City, KS 58 °F 38 °F 48% South  at  12 mph 0.00 in / hr 1230 ft 8:30 AM CDT MADIS
MesoWest LATIMR , White City, KS 53 °F - - North  at  - 0.00 in / hr 1425 ft 7:30 AM CDT MADIS

Show More Stations Show Fewer Stations

What do you think?

We're not finished. Please let us know what you like, what you don't like, and what you are still missing.